createdAt,value
2019-02-21T00:01:05.001Z,35.90
2019-02-21T00:03:35.355Z,36.70
2019-02-21T00:06:05.891Z,37.33
2019-02-21T00:08:36.004Z,36.90
2019-02-21T00:11:06.675Z,36.73
2019-02-21T00:13:36.978Z,35.83
2019-02-21T00:16:07.777Z,36.10
2019-02-21T00:18:38.314Z,34.47
2019-02-21T00:21:11.381Z,34.40
2019-02-21T00:23:42.152Z,35.07
2019-02-21T00:26:12.834Z,35.20
2019-02-21T00:29:00.748Z,35.33
2019-02-21T00:31:31.749Z,35.07
2019-02-21T00:34:03.085Z,35.10
2019-02-21T00:36:33.089Z,34.70
2019-02-21T00:39:03.549Z,33.87
2019-02-21T00:41:35.159Z,33.80
2019-02-21T00:44:05.078Z,33.83
2019-02-21T00:46:34.930Z,33.43
2019-02-21T00:49:04.784Z,32.30
2019-02-21T00:51:34.655Z,32.47
2019-02-21T00:54:04.524Z,34.00
2019-02-21T00:56:34.367Z,32.70
2019-02-21T00:59:05.568Z,33.47
2019-02-21T01:01:35.377Z,32.50
2019-02-21T01:04:05.439Z,33.70
2019-02-21T01:06:37.825Z,34.03
2019-02-21T01:09:07.736Z,33.90
2019-02-21T01:11:37.580Z,34.60
2019-02-21T01:14:07.403Z,35.00
2019-02-21T01:16:37.237Z,33.03
2019-02-21T01:19:07.051Z,33.87
2019-02-21T01:21:36.882Z,33.37
2019-02-21T01:24:06.780Z,33.90
2019-02-21T01:26:37.657Z,33.90
2019-02-21T01:29:07.670Z,33.73
2019-02-21T01:31:38.541Z,34.17
2019-02-21T01:34:09.372Z,32.60
2019-02-21T01:36:39.682Z,32.93
2019-02-21T01:39:09.701Z,33.90
2019-02-21T01:41:39.797Z,34.63
2019-02-21T01:44:10.149Z,32.23
2019-02-21T01:46:40.558Z,32.53
2019-02-21T01:49:11.803Z,32.83
2019-02-21T01:51:43.107Z,33.63
2019-02-21T01:54:13.344Z,34.33
2019-02-21T01:56:43.342Z,34.13
2019-02-21T01:59:14.686Z,33.90
2019-02-21T02:01:45.244Z,32.53
2019-02-21T02:04:16.329Z,32.00
2019-02-21T02:06:48.381Z,32.30
2019-02-21T02:09:20.488Z,33.60
2019-02-21T02:11:50.434Z,32.87
2019-02-21T02:14:20.649Z,33.33
2019-02-21T02:16:52.604Z,34.13
2019-02-21T02:19:24.919Z,34.10
2019-02-21T02:21:55.550Z,33.20
2019-02-21T02:24:26.275Z,33.23
2019-02-21T02:26:57.142Z,34.10
2019-02-21T02:29:28.440Z,32.50
2019-02-21T02:32:00.446Z,33.67
2019-02-21T02:34:32.446Z,33.63
2019-02-21T02:37:04.304Z,33.17
2019-02-21T02:39:38.108Z,34.67
2019-02-21T02:42:10.511Z,31.80
2019-02-21T02:44:41.578Z,32.30
2019-02-21T02:47:12.551Z,31.33
2019-02-21T02:49:44.103Z,32.20
2019-02-21T02:52:15.328Z,31.30
2019-02-21T02:54:46.835Z,31.10
2019-02-21T02:57:16.994Z,31.63
2019-02-21T02:59:48.879Z,32.00
2019-02-21T03:02:19.612Z,30.50
2019-02-21T03:04:50.204Z,31.07
2019-02-21T03:07:22.488Z,31.33
2019-02-21T03:09:56.046Z,30.17
2019-02-21T03:12:26.134Z,30.50
2019-02-21T03:14:56.744Z,31.40
2019-02-21T03:17:26.706Z,30.37
2019-02-21T03:19:56.516Z,29.83
2019-02-21T03:22:26.352Z,30.40
2019-02-21T03:24:56.123Z,30.23
2019-02-21T03:27:25.949Z,28.50
2019-02-21T03:29:55.715Z,29.97
2019-02-21T03:32:25.929Z,28.47
2019-02-21T03:34:55.713Z,27.47
2019-02-21T03:37:25.528Z,28.20
2019-02-21T03:39:55.310Z,27.90
2019-02-21T03:42:25.098Z,27.40
2019-02-21T03:44:54.895Z,27.17
2019-02-21T03:47:24.689Z,26.87
2019-02-21T03:49:54.604Z,27.50
2019-02-21T03:52:24.387Z,27.43
2019-02-21T03:54:54.226Z,29.33
2019-02-21T03:57:24.104Z,28.03
2019-02-21T03:59:54.068Z,28.20
2019-02-21T04:02:23.985Z,28.10
2019-02-21T04:04:53.986Z,28.63
2019-02-21T04:07:23.916Z,27.97
2019-02-21T04:09:53.906Z,27.13
2019-02-21T04:12:23.902Z,27.93
2019-02-21T04:14:53.833Z,27.10
2019-02-21T04:17:23.872Z,26.50
2019-02-21T04:19:53.837Z,26.47
2019-02-21T04:22:23.875Z,24.57
2019-02-21T04:24:53.986Z,23.40
2019-02-21T04:27:23.985Z,24.67
2019-02-21T04:29:53.953Z,23.30
2019-02-21T04:32:25.404Z,23.17
2019-02-21T04:34:55.586Z,22.50
2019-02-21T04:37:25.465Z,21.20
2019-02-21T04:39:56.505Z,21.10
2019-02-21T04:42:26.513Z,21.77
2019-02-21T04:45:00.539Z,20.30
2019-02-21T04:47:30.681Z,21.50
2019-02-21T04:50:05.233Z,21.70
2019-02-21T04:52:35.185Z,20.60
2019-02-21T04:55:05.955Z,20.40
2019-02-21T04:58:46.670Z,19.80
2019-02-21T05:00:16.753Z,20.20
2019-02-21T05:02:46.636Z,22.13
2019-02-21T05:05:18.241Z,21.80
2019-02-21T05:07:48.186Z,21.33
2019-02-21T05:10:18.067Z,21.23
2019-02-21T05:12:48.066Z,21.90
2019-02-21T05:15:18.027Z,22.53
2019-02-21T05:17:47.950Z,23.70
2019-02-21T05:20:17.793Z,23.63
2019-02-21T05:22:47.786Z,21.63
2019-02-21T05:25:19.105Z,21.33
2019-02-21T05:27:50.386Z,20.97
2019-02-21T05:30:21.884Z,21.17
2019-02-21T05:32:59.346Z,20.87
2019-02-21T05:35:47.253Z,22.43
2019-02-21T05:38:18.746Z,20.80
2019-02-21T05:40:56.069Z,21.67
2019-02-21T05:43:33.711Z,20.53
2019-02-21T05:46:10.963Z,21.97
2019-02-21T05:48:46.383Z,21.87
2019-02-21T05:51:17.816Z,20.77
2019-02-21T05:53:49.306Z,20.90
2019-02-21T05:56:30.695Z,20.40
2019-02-21T05:59:05.361Z,20.07
2019-02-21T06:01:55.056Z,19.00
2019-02-21T06:04:26.531Z,21.57
2019-02-21T06:06:58.186Z,21.07
2019-02-21T06:09:32.710Z,21.60
2019-02-21T06:12:33.099Z,20.17
2019-02-21T06:14:55.577Z,20.17
2019-02-21T06:17:29.891Z,20.00
2019-02-21T06:20:17.989Z,20.60
2019-02-21T06:22:55.149Z,21.17
2019-02-21T06:25:30.324Z,20.53
2019-02-21T06:28:05.177Z,20.93
2019-02-21T06:30:43.433Z,20.10
2019-02-21T06:33:14.454Z,19.90
2019-02-21T06:35:45.846Z,19.83
2019-02-21T06:38:15.766Z,20.50
2019-02-21T06:40:47.031Z,20.67
2019-02-21T06:43:17.228Z,20.87
2019-02-21T06:45:49.129Z,20.83
2019-02-21T06:48:19.826Z,21.23
2019-02-21T06:50:49.887Z,22.13
2019-02-21T06:53:19.784Z,20.60
2019-02-21T06:55:49.759Z,21.80
2019-02-21T06:58:19.672Z,20.80
2019-02-21T07:00:49.628Z,21.37
2019-02-21T07:03:19.556Z,19.83
2019-02-21T07:05:49.411Z,21.77
2019-02-21T07:08:25.225Z,21.90
2019-02-21T07:11:05.396Z,21.40
2019-02-21T07:13:27.125Z,22.70
2019-02-21T07:15:58.714Z,21.67
2019-02-21T07:18:29.075Z,22.10
2019-02-21T07:20:59.090Z,21.43
2019-02-21T07:23:32.675Z,22.03
2019-02-21T07:26:01.597Z,22.77
2019-02-21T07:28:31.626Z,22.30
2019-02-21T07:31:01.489Z,22.27
2019-02-21T07:33:31.474Z,23.07
2019-02-21T07:36:03.574Z,22.23
2019-02-21T07:38:33.445Z,21.10
2019-02-21T07:41:03.476Z,21.70
2019-02-21T07:43:35.320Z,22.40
2019-02-21T07:46:06.882Z,20.47
2019-02-21T07:48:36.695Z,21.27
2019-02-21T07:51:09.892Z,21.73
2019-02-21T07:53:42.344Z,22.60
2019-02-21T07:56:15.112Z,22.53
2019-02-21T07:58:45.002Z,21.90
2019-02-21T08:01:17.353Z,22.47
2019-02-21T08:03:48.539Z,22.03
2019-02-21T08:06:20.024Z,23.00
2019-02-21T08:08:52.313Z,23.47
2019-02-21T08:11:22.288Z,22.47
2019-02-21T08:13:53.692Z,22.57
2019-02-21T08:16:28.095Z,21.73
2019-02-21T08:18:59.194Z,22.67
2019-02-21T08:21:29.324Z,22.73
2019-02-21T08:24:00.412Z,23.27
2019-02-21T08:26:30.972Z,22.20
2019-02-21T08:29:00.996Z,22.30
2019-02-21T08:31:30.985Z,23.47
2019-02-21T08:34:07.272Z,23.50
2019-02-21T08:36:37.180Z,24.67
2019-02-21T08:39:09.494Z,24.77
2019-02-21T08:41:46.516Z,26.37
2019-02-21T08:44:18.634Z,23.37
2019-02-21T08:46:53.585Z,24.93
2019-02-21T08:49:25.179Z,23.07
2019-02-21T08:51:56.451Z,24.50
2019-02-21T08:54:27.805Z,22.37
2019-02-21T08:57:01.094Z,21.90
2019-02-21T08:59:32.549Z,22.50
2019-02-21T09:02:05.064Z,23.53
2019-02-21T09:04:35.155Z,21.90
2019-02-21T09:07:09.534Z,21.87
2019-02-21T09:09:39.509Z,23.40
2019-02-21T09:12:11.218Z,22.07
2019-02-21T09:14:41.232Z,20.57
2019-02-21T09:17:14.182Z,23.33
2019-02-21T09:19:44.056Z,20.07
2019-02-21T09:22:13.957Z,21.73
2019-02-21T09:24:45.498Z,21.50
2019-02-21T09:27:16.406Z,21.20
2019-02-21T09:29:51.152Z,21.33
2019-02-21T09:32:21.719Z,20.40
2019-02-21T09:34:54.669Z,20.60
2019-02-21T09:37:24.597Z,18.40
2019-02-21T09:39:55.592Z,18.73
2019-02-21T09:42:25.752Z,20.13
2019-02-21T09:45:01.058Z,20.00
2019-02-21T09:47:52.056Z,19.93
2019-02-21T09:50:14.376Z,18.93
2019-02-21T09:52:51.726Z,19.33
2019-02-21T09:55:31.632Z,19.50
2019-02-21T09:58:16.824Z,18.83
2019-02-21T10:00:48.250Z,18.43
2019-02-21T10:03:18.212Z,18.23
2019-02-21T10:05:52.233Z,17.60
2019-02-21T10:08:26.312Z,18.07
2019-02-21T10:10:57.830Z,17.77
2019-02-21T10:13:27.798Z,17.13
2019-02-21T10:15:59.278Z,17.47
2019-02-21T10:18:30.896Z,16.00
2019-02-21T10:21:02.581Z,17.00
2019-02-21T10:23:38.399Z,17.17
2019-02-21T10:26:13.212Z,17.00
2019-02-21T10:28:45.220Z,18.40
2019-02-21T10:31:15.311Z,18.10
2019-02-21T10:33:47.309Z,17.90
2019-02-21T10:36:16.858Z,18.40
2019-02-21T10:38:46.931Z,18.37
2019-02-21T10:41:31.434Z,18.53
2019-02-21T10:44:02.872Z,17.47
2019-02-21T10:46:32.832Z,18.43
2019-02-21T10:49:03.732Z,17.37
2019-02-21T10:51:34.331Z,17.57
2019-02-21T10:54:07.292Z,18.83
2019-02-21T10:56:37.887Z,18.67
2019-02-21T10:59:09.832Z,19.17
2019-02-21T11:01:40.512Z,18.60
2019-02-21T11:04:16.734Z,20.53
2019-02-21T11:06:50.894Z,19.57
2019-02-21T11:09:21.995Z,19.80
2019-02-21T11:11:52.052Z,19.73
2019-02-21T11:14:22.191Z,19.47
2019-02-21T11:16:52.153Z,19.70
2019-02-21T11:19:22.728Z,19.37
2019-02-21T11:21:52.709Z,19.40
2019-02-21T11:24:22.600Z,19.17
2019-02-21T11:26:52.576Z,19.63
2019-02-21T11:29:22.476Z,19.13
2019-02-21T11:31:55.195Z,18.47
2019-02-21T11:34:28.945Z,19.57
2019-02-21T11:37:01.352Z,19.73
2019-02-21T11:39:32.350Z,18.70
2019-02-21T11:42:02.572Z,18.33
2019-02-21T11:44:32.575Z,19.00
2019-02-21T11:47:02.783Z,18.50
2019-02-21T11:49:32.822Z,18.10
2019-02-21T11:52:09.880Z,17.13
2019-02-21T11:54:34.354Z,17.30
2019-02-21T11:57:07.812Z,16.47
2019-02-21T11:59:40.613Z,17.70
2019-02-21T12:02:10.753Z,17.20
2019-02-21T12:04:44.734Z,16.57
2019-02-21T12:07:14.794Z,17.43
2019-02-21T12:09:45.994Z,17.30
2019-02-21T12:12:17.937Z,16.53
2019-02-21T12:14:49.972Z,15.53
2019-02-21T12:17:26.714Z,16.33
2019-02-21T12:19:58.269Z,16.23
2019-02-21T12:25:26.715Z,16.37
2019-02-21T12:27:58.141Z,16.27
2019-02-21T12:30:33.276Z,16.60
2019-02-21T12:33:01.558Z,17.23
2019-02-21T12:35:31.627Z,17.57
2019-02-21T12:38:05.134Z,18.40
2019-02-21T12:40:36.530Z,18.33
2019-02-21T12:43:12.237Z,18.53
2019-02-21T12:45:52.558Z,16.43
2019-02-21T12:48:22.833Z,17.87
2019-02-21T12:50:55.013Z,17.17
2019-02-21T12:53:28.020Z,17.47
2019-02-21T12:55:58.292Z,17.57
2019-02-21T12:58:28.292Z,17.23
2019-02-21T13:01:01.431Z,17.27
2019-02-21T13:03:31.954Z,17.57
2019-02-21T13:06:04.054Z,17.93
2019-02-21T13:08:33.996Z,17.13
2019-02-21T13:11:06.174Z,16.73
2019-02-21T13:13:38.914Z,17.27
2019-02-21T13:16:09.757Z,16.23
2019-02-21T13:18:43.829Z,16.60
2019-02-21T13:21:17.652Z,18.40
2019-02-21T13:23:49.351Z,17.60
2019-02-21T13:26:22.093Z,17.13
2019-02-21T13:28:53.633Z,16.60
2019-02-21T13:31:23.555Z,16.93
2019-02-21T13:33:53.490Z,17.20
2019-02-21T13:36:26.365Z,16.10
2019-02-21T13:38:59.173Z,16.80
2019-02-21T13:41:29.310Z,17.03
2019-02-21T13:43:59.196Z,17.40
2019-02-21T13:46:38.703Z,17.67
2019-02-21T13:49:10.574Z,18.57
2019-02-21T13:51:40.752Z,18.33
2019-02-21T13:54:10.772Z,18.70
2019-02-21T13:56:41.512Z,19.10
2019-02-21T13:59:11.572Z,19.37
2019-02-21T14:01:48.713Z,20.23
2019-02-21T14:04:16.193Z,22.23
2019-02-21T14:06:47.215Z,20.20
2019-02-21T14:09:17.236Z,21.83
2019-02-21T14:11:47.166Z,20.80
2019-02-21T14:14:17.086Z,21.73
2019-02-21T14:16:47.174Z,22.73
2019-02-21T14:19:20.934Z,23.33
2019-02-21T14:21:53.809Z,22.80
2019-02-21T14:24:35.988Z,21.10
2019-02-21T14:26:57.162Z,22.23
2019-02-21T14:29:38.451Z,21.83
2019-02-21T14:32:06.770Z,25.27
2019-02-21T14:34:40.696Z,24.93
2019-02-21T14:37:12.388Z,23.20
2019-02-21T14:39:53.878Z,25.10
2019-02-21T14:42:28.192Z,24.00
2019-02-21T14:45:00.903Z,25.10
2019-02-21T14:47:32.665Z,24.17
2019-02-21T14:50:06.757Z,24.30
2019-02-21T14:52:38.297Z,24.13
2019-02-21T14:55:11.375Z,25.47
2019-02-21T14:57:41.791Z,26.37
2019-02-21T15:00:17.850Z,25.03
2019-02-21T15:02:49.440Z,25.07
2019-02-21T15:05:22.705Z,25.67
2019-02-21T15:07:57.680Z,27.77
2019-02-21T15:10:28.971Z,25.50
2019-02-21T15:13:00.465Z,24.97
2019-02-21T15:15:30.575Z,29.23
2019-02-21T15:18:07.625Z,25.53
2019-02-21T15:20:37.096Z,26.60
2019-02-21T15:23:11.881Z,28.97
2019-02-21T15:25:47.288Z,26.53
2019-02-21T15:28:25.161Z,26.80
2019-02-21T15:30:55.516Z,26.93
2019-02-21T15:33:25.453Z,26.10
2019-02-21T15:35:57.192Z,24.77
2019-02-21T15:38:28.735Z,28.57
2019-02-21T15:41:10.255Z,27.77
2019-02-21T15:43:49.089Z,27.40
2019-02-21T15:46:27.717Z,29.13
2019-02-21T15:48:59.312Z,28.37
2019-02-21T15:51:30.732Z,30.77
2019-02-21T15:54:02.416Z,31.13
2019-02-21T15:56:35.043Z,30.53
2019-02-21T15:59:13.500Z,33.57
2019-02-21T16:04:40.507Z,32.27
2019-02-21T16:07:12.188Z,33.30
2019-02-21T16:09:43.632Z,33.57
2019-02-21T16:12:14.986Z,33.93
2019-02-21T16:14:46.344Z,37.07
2019-02-21T16:17:16.816Z,34.10
2019-02-21T16:19:49.158Z,33.20
2019-02-21T16:22:26.453Z,34.87
2019-02-21T16:24:58.434Z,32.20
2019-02-21T16:27:32.493Z,33.03
2019-02-21T16:30:02.841Z,33.30
2019-02-21T16:32:35.840Z,34.07
2019-02-21T16:35:11.325Z,32.17
2019-02-21T16:37:47.080Z,32.70
2019-02-21T16:40:23.413Z,33.77
2019-02-21T16:42:56.572Z,33.50
2019-02-21T16:45:42.389Z,33.77
2019-02-21T16:48:06.330Z,34.73
2019-02-21T16:50:36.599Z,35.87
2019-02-21T16:53:09.988Z,33.73
2019-02-21T16:55:39.655Z,35.07
2019-02-21T16:58:11.346Z,35.23
2019-02-21T17:00:51.394Z,34.63
2019-02-21T17:03:14.007Z,37.47
2019-02-21T17:05:47.844Z,36.73
2019-02-21T17:08:18.059Z,36.70
2019-02-21T17:10:49.832Z,32.73
2019-02-21T17:13:21.361Z,29.30
2019-02-21T17:15:52.688Z,29.93
2019-02-21T17:18:25.513Z,28.70
2019-02-21T17:20:55.847Z,27.17
2019-02-21T17:23:26.075Z,26.67
2019-02-21T17:25:57.041Z,26.80
2019-02-21T17:28:27.223Z,24.93
2019-02-21T17:30:57.386Z,25.07
2019-02-21T17:33:27.587Z,26.20
2019-02-21T17:35:57.971Z,25.63
2019-02-21T17:38:28.191Z,25.07
2019-02-21T17:40:58.628Z,25.47
2019-02-21T17:43:29.171Z,24.97
2019-02-21T17:46:03.614Z,22.67
2019-02-21T17:48:41.099Z,23.23
2019-02-21T17:51:14.220Z,24.30
2019-02-21T17:53:45.868Z,22.20
2019-02-21T17:56:17.742Z,22.17
2019-02-21T17:58:48.425Z,18.73
2019-02-21T18:01:18.733Z,19.67
2019-02-21T18:03:49.215Z,20.03
2019-02-21T18:06:19.614Z,20.87
2019-02-21T18:08:49.936Z,18.50
2019-02-21T18:11:20.095Z,19.20
2019-02-21T18:13:52.769Z,19.80
2019-02-21T18:16:23.060Z,19.93
2019-02-21T18:18:54.076Z,20.90
2019-02-21T18:24:49.986Z,20.30
2019-02-21T18:27:20.454Z,20.97
2019-02-21T18:29:50.744Z,20.47
2019-02-21T18:32:22.411Z,20.13
2019-02-21T18:34:53.149Z,20.00
2019-02-21T18:37:23.623Z,19.37
2019-02-21T18:39:55.595Z,20.93
2019-02-21T18:42:25.947Z,20.87
2019-02-21T18:44:57.607Z,21.87
2019-02-21T18:47:27.908Z,22.13
2019-02-21T18:49:59.677Z,20.83
2019-02-21T18:52:31.904Z,19.83
2019-02-21T18:55:03.801Z,20.30
2019-02-21T18:57:36.447Z,18.90
2019-02-21T19:00:26.359Z,16.37
2019-02-21T19:02:56.670Z,17.13
2019-02-21T19:05:35.242Z,18.70
2019-02-21T19:08:16.325Z,19.60
2019-02-21T19:10:48.030Z,20.47
2019-02-21T19:13:19.115Z,20.17
2019-02-21T19:15:52.805Z,20.30
2019-02-21T19:18:24.571Z,21.37
2019-02-21T19:20:55.051Z,21.97
2019-02-21T19:23:26.830Z,23.30
2019-02-21T19:26:00.252Z,25.63
2019-02-21T19:28:30.592Z,26.17
2019-02-21T19:31:10.945Z,25.17
2019-02-21T19:33:41.539Z,27.93
2019-02-21T19:36:12.051Z,30.77
2019-02-21T19:38:43.721Z,32.37
2019-02-21T19:41:14.117Z,30.20
2019-02-21T19:43:45.990Z,30.53
2019-02-21T19:46:17.541Z,32.30
2019-02-21T19:48:49.049Z,31.23
2019-02-21T19:51:19.546Z,31.77
2019-02-21T19:53:54.098Z,32.40
2019-02-21T19:56:27.111Z,29.97
2019-02-21T19:58:57.862Z,29.30
2019-02-21T20:01:28.164Z,28.57
2019-02-21T20:03:58.526Z,28.03
2019-02-21T20:06:28.998Z,31.10
2019-02-21T20:09:08.626Z,29.37
2019-02-21T20:11:40.449Z,29.83
2019-02-21T20:14:10.838Z,29.87
2019-02-21T20:16:41.368Z,31.60
2019-02-21T20:19:11.614Z,31.60
2019-02-21T20:21:42.067Z,32.97
2019-02-21T20:24:12.322Z,29.67
2019-02-21T20:26:42.866Z,30.40
2019-02-21T20:29:13.278Z,30.73
2019-02-21T20:31:43.853Z,30.53
2019-02-21T20:34:14.739Z,32.33
2019-02-21T20:36:50.903Z,32.63
2019-02-21T20:39:17.170Z,29.87
2019-02-21T20:41:47.578Z,31.13
2019-02-21T20:44:17.803Z,31.90
2019-02-21T20:46:48.043Z,31.20
2019-02-21T20:49:18.812Z,30.47
2019-02-21T20:51:49.150Z,32.13
2019-02-21T20:54:21.013Z,32.00
2019-02-21T20:56:51.484Z,32.63
2019-02-21T20:59:21.978Z,34.77
2019-02-21T21:01:52.822Z,36.37
2019-02-21T21:04:23.128Z,36.50
2019-02-21T21:06:53.445Z,36.97
2019-02-21T21:09:23.861Z,36.90
2019-02-21T21:11:55.638Z,36.90
2019-02-21T21:14:26.219Z,35.87
2019-02-21T21:16:56.562Z,38.63
2019-02-21T21:19:26.863Z,38.10
2019-02-21T21:21:57.250Z,39.83
2019-02-21T21:24:27.658Z,38.83
2019-02-21T21:26:57.898Z,38.30
2019-02-21T21:29:28.315Z,39.43
2019-02-21T21:31:58.581Z,39.27
2019-02-21T21:34:28.765Z,38.90
2019-02-21T21:36:59.127Z,42.00
2019-02-21T21:39:29.500Z,41.77
2019-02-21T21:41:59.828Z,41.20
2019-02-21T21:44:29.834Z,41.30
2019-02-21T21:46:59.962Z,41.23
2019-02-21T21:49:30.102Z,42.50
2019-02-21T21:52:02.001Z,40.83
2019-02-21T21:54:32.017Z,43.17
2019-02-21T21:57:05.026Z,42.50
2019-02-21T21:59:35.060Z,41.70
2019-02-21T22:02:05.000Z,45.83
2019-02-21T22:04:34.935Z,44.60
2019-02-21T22:07:04.818Z,44.03
2019-02-21T22:09:37.617Z,41.00
2019-02-21T22:12:08.575Z,43.20
2019-02-21T22:14:38.501Z,45.63
2019-02-21T22:17:08.579Z,43.23
2019-02-21T22:19:39.730Z,41.70
2019-02-21T22:22:09.601Z,44.60
2019-02-21T22:24:39.510Z,44.60
2019-02-21T22:27:09.492Z,45.77
2019-02-21T22:29:40.910Z,47.50
2019-02-21T22:32:10.845Z,45.97
2019-02-21T22:34:42.319Z,45.40
2019-02-21T22:37:12.539Z,46.97
2019-02-21T22:39:42.664Z,45.17
2019-02-21T22:42:12.626Z,46.73
2019-02-21T22:44:42.679Z,43.97
2019-02-21T22:47:12.660Z,45.70
2019-02-21T22:49:42.596Z,49.03
2019-02-21T22:52:12.595Z,45.00
2019-02-21T22:54:42.597Z,47.43
2019-02-21T22:57:12.707Z,44.70
2019-02-21T22:59:52.504Z,44.33
2019-02-21T23:02:25.860Z,42.77
2019-02-21T23:05:28.061Z,44.13
2019-02-21T23:07:58.531Z,40.57
2019-02-21T23:10:28.474Z,42.10
2019-02-21T23:13:02.903Z,41.53
2019-02-21T23:15:35.847Z,41.97
2019-02-21T23:18:07.402Z,41.10
2019-02-21T23:20:46.600Z,41.83
2019-02-21T23:23:18.657Z,42.17
2019-02-21T23:25:51.432Z,40.10
2019-02-21T23:28:23.643Z,42.60
2019-02-21T23:30:54.302Z,41.97
2019-02-21T23:33:25.482Z,41.47
2019-02-21T23:35:55.398Z,41.67
2019-02-21T23:38:25.631Z,43.50
2019-02-21T23:40:55.575Z,41.37
2019-02-21T23:43:25.539Z,41.23
2019-02-21T23:45:55.535Z,41.30
2019-02-21T23:48:25.427Z,42.37
2019-02-21T23:50:58.416Z,42.30
2019-02-21T23:53:28.368Z,40.27
2019-02-21T23:55:58.317Z,43.50
2019-02-21T23:58:28.243Z,45.60
